Time;durP1;ratioP1;P1;durP2;ratioP2;P2;SDS_P1;SDS_P2;PMS_P1;PMS_P2;Temp;Humidity;BMP_temperature;BMP_pressure;BME280_temperature;BME280_humidity;BME280_pressure;Samples;Min_cycle;Max_cycle;Signal;HPM_P1;HPM_P2
2022/07/26 00:01:05;;;;;;;8.13;1.67;;;20.00;99.90;;;;;;5017132;28;20874;-81
2022/07/26 00:03:31;;;;;;;9.00;2.38;;;19.90;99.90;;;;;;5017686;28;20735;-82
2022/07/26 00:05:58;;;;;;;6.65;2.05;;;19.90;99.90;;;;;;5017147;28;20198;-82
2022/07/26 00:08:23;;;;;;;11.30;2.20;;;19.90;99.90;;;;;;5017044;28;20194;-81
2022/07/26 00:10:49;;;;;;;9.57;2.30;;;19.90;99.90;;;;;;5016723;28;20179;-81
2022/07/26 00:13:16;;;;;;;6.82;1.98;;;20.00;99.90;;;;;;5017007;28;20175;-80
2022/07/26 00:15:43;;;;;;;8.90;2.25;;;19.80;99.90;;;;;;5017772;28;20660;-81
2022/07/26 00:18:09;;;;;;;6.63;2.22;;;19.80;99.90;;;;;;5017702;28;20179;-81
2022/07/26 00:21:13;;;;;;;5.05;1.90;;;19.70;99.90;;;;;;5016417;28;20175;-80
2022/07/26 00:27:19;;;;;;;10.33;1.90;;;19.60;99.90;;;;;;5019573;28;20170;-81
2022/07/26 00:29:45;;;;;;;6.77;2.00;;;19.60;99.90;;;;;;5017572;28;20175;-81
2022/07/26 00:32:10;;;;;;;10.77;2.97;;;19.60;99.90;;;;;;5016702;28;20686;-80
2022/07/26 00:34:36;;;;;;;13.40;2.20;;;19.50;99.90;;;;;;5017867;28;20194;-81
2022/07/26 00:37:02;;;;;;;9.03;2.10;;;19.40;99.90;;;;;;5016743;28;20233;-82
2022/07/26 00:39:28;;;;;;;7.63;1.80;;;19.30;99.90;;;;;;5017329;28;20602;-80
2022/07/26 00:41:53;;;;;;;11.57;2.33;;;19.40;99.90;;;;;;5018193;28;20666;-81
2022/07/26 00:44:19;;;;;;;12.60;2.50;;;19.40;99.90;;;;;;5016963;28;20210;-81
2022/07/26 00:46:45;;;;;;;11.17;2.97;;;19.30;99.90;;;;;;5016799;28;20182;-81
2022/07/26 00:49:11;;;;;;;9.13;2.60;;;19.30;99.90;;;;;;5017686;28;20171;-81
2022/07/26 00:51:37;;;;;;;10.67;2.40;;;19.20;99.90;;;;;;5016649;28;20189;-82
2022/07/26 00:54:04;;;;;;;5.10;1.97;;;19.30;99.90;;;;;;5017789;28;20198;-80
2022/07/26 00:56:32;;;;;;;13.73;2.30;;;19.30;99.90;;;;;;5016836;28;20189;-81
2022/07/26 00:58:59;;;;;;;11.77;2.43;;;19.20;99.90;;;;;;5017158;28;20175;-80
2022/07/26 01:01:25;;;;;;;6.67;2.30;;;19.20;99.90;;;;;;5017533;28;20269;-82
2022/07/26 01:03:52;;;;;;;6.73;2.30;;;19.10;99.90;;;;;;5016766;28;20245;-81
2022/07/26 01:06:19;;;;;;;12.70;2.30;;;19.00;99.90;;;;;;5018292;28;20619;-81
2022/07/26 01:08:45;;;;;;;13.27;2.40;;;18.90;99.90;;;;;;5018522;28;20293;-82
2022/07/26 01:11:11;;;;;;;19.00;3.17;;;19.00;99.90;;;;;;5020157;28;20171;-81
2022/07/26 01:13:44;;;;;;;8.23;2.20;;;18.90;99.90;;;;;;5018601;28;20190;-81
2022/07/26 01:16:09;;;;;;;6.00;1.93;;;18.90;99.90;;;;;;5015839;28;20202;-81
2022/07/26 01:18:35;;;;;;;17.37;2.73;;;18.90;99.90;;;;;;5014537;28;20273;-82
2022/07/26 01:21:02;;;;;;;7.70;2.10;;;18.90;99.90;;;;;;5014278;28;20189;-81
2022/07/26 01:23:30;;;;;;;13.00;2.30;;;18.90;99.90;;;;;;5015465;28;20207;-81
2022/07/26 01:25:55;;;;;;;7.97;2.23;;;18.90;99.90;;;;;;5015572;28;20182;-81
2022/07/26 01:28:21;;;;;;;10.57;2.30;;;18.90;99.90;;;;;;5015599;28;20175;-80
2022/07/26 01:30:48;;;;;;;6.53;2.30;;;18.80;99.90;;;;;;5015153;28;20175;-81
2022/07/26 01:33:13;;;;;;;9.33;2.37;;;18.70;99.90;;;;;;5014972;28;20179;-82
2022/07/26 01:35:39;;;;;;;9.27;2.40;;;18.70;99.90;;;;;;5014504;28;20233;-80
2022/07/26 01:38:04;;;;;;;6.10;1.87;;;18.60;99.90;;;;;;5028367;23;20234;-78
2022/07/26 01:40:30;;;;;;;11.00;2.30;;;18.60;99.90;;;;;;4993946;28;20711;-78
2022/07/26 01:42:56;;;;;;;6.07;2.23;;;18.50;99.90;;;;;;4993286;28;20687;-78
2022/07/26 01:45:21;;;;;;;12.03;2.50;;;18.70;99.90;;;;;;4993604;28;20170;-79
2022/07/26 01:47:49;;;;;;;5.87;2.00;;;18.70;99.90;;;;;;4993483;28;20182;-77
2022/07/26 01:50:16;;;;;;;8.37;2.07;;;18.70;99.90;;;;;;4993560;28;20168;-79
2022/07/26 01:52:41;;;;;;;5.77;2.13;;;18.70;99.90;;;;;;5051067;22;20705;-77
2022/07/26 01:55:07;;;;;;;7.93;2.00;;;18.50;99.90;;;;;;5032734;28;20280;-78
2022/07/26 01:57:33;;;;;;;4.33;1.93;;;18.60;99.90;;;;;;5032170;28;20170;-79
2022/07/26 01:59:59;;;;;;;7.60;2.00;;;18.70;99.90;;;;;;5033813;28;20172;-78
2022/07/26 02:02:25;;;;;;;7.67;2.00;;;18.60;99.90;;;;;;5031581;28;20178;-77
2022/07/26 02:05:00;;;;;;;11.50;2.10;;;18.50;99.90;;;;;;5031896;28;20198;-78
2022/07/26 02:07:31;;;;;;;7.63;2.70;;;18.60;99.90;;;;;;5032051;28;20205;-78
2022/07/26 02:09:57;;;;;;;12.70;2.37;;;18.60;99.90;;;;;;5032380;28;20173;-78
2022/07/26 02:12:23;;;;;;;5.10;1.97;;;18.60;99.90;;;;;;5032456;28;20177;-76
2022/07/26 02:14:49;;;;;;;7.57;1.90;;;18.60;99.90;;;;;;5030312;28;20663;-78
2022/07/26 02:17:15;;;;;;;4.20;1.90;;;18.60;99.90;;;;;;5031528;28;20587;-78
2022/07/26 02:19:41;;;;;;;8.43;1.80;;;18.60;99.90;;;;;;5030996;28;20257;-79
2022/07/26 02:22:07;;;;;;;12.77;2.10;;;18.50;99.90;;;;;;5031370;28;20312;-78
2022/07/26 02:24:33;;;;;;;6.50;2.00;;;18.60;99.90;;;;;;5031252;28;20237;-78
2022/07/26 02:26:59;;;;;;;8.93;2.33;;;18.50;99.90;;;;;;5032102;28;20173;-77
2022/07/26 02:29:26;;;;;;;3.17;2.07;;;18.50;99.90;;;;;;5031822;28;20166;-77
2022/07/26 02:31:52;;;;;;;7.37;1.90;;;18.50;99.90;;;;;;5030787;28;20320;-77
2022/07/26 02:34:18;;;;;;;7.33;2.10;;;18.50;99.90;;;;;;5030861;28;20194;-77
2022/07/26 02:36:44;;;;;;;11.33;2.43;;;18.60;99.90;;;;;;5032713;28;20737;-77
2022/07/26 02:39:11;;;;;;;7.17;2.03;;;18.60;99.90;;;;;;5032746;28;20558;-79
2022/07/26 02:41:36;;;;;;;6.97;1.97;;;18.50;99.90;;;;;;5032586;28;20265;-78
2022/07/26 02:44:02;;;;;;;6.30;2.03;;;18.50;99.90;;;;;;5031688;28;20269;-78
2022/07/26 02:46:28;;;;;;;7.57;2.00;;;18.50;99.90;;;;;;5032622;28;20318;-78
2022/07/26 02:48:54;;;;;;;13.63;2.10;;;18.50;99.90;;;;;;5031502;28;20201;-78
2022/07/26 02:51:19;;;;;;;8.70;2.20;;;18.50;99.90;;;;;;5031440;28;20186;-77
2022/07/26 02:53:45;;;;;;;9.00;2.30;;;18.50;99.90;;;;;;5031466;28;20225;-78
2022/07/26 02:56:11;;;;;;;10.27;2.37;;;18.50;99.90;;;;;;5031545;28;20178;-77
2022/07/26 02:58:36;;;;;;;5.20;1.90;;;18.40;99.90;;;;;;5031679;28;20722;-77
2022/07/26 03:01:03;;;;;;;5.70;2.30;;;18.50;99.90;;;;;;5031243;28;20247;-78
2022/07/26 03:03:28;;;;;;;11.23;2.30;;;18.40;99.90;;;;;;5031809;28;20628;-78
2022/07/26 03:05:54;;;;;;;11.10;2.83;;;18.40;99.90;;;;;;5031941;28;20174;-78
2022/07/26 03:08:20;;;;;;;6.57;2.30;;;18.50;99.90;;;;;;5030689;28;20229;-77
2022/07/26 03:10:45;;;;;;;13.17;2.57;;;18.40;99.90;;;;;;5030428;28;20170;-76
2022/07/26 03:13:11;;;;;;;5.10;2.03;;;18.40;99.90;;;;;;5029702;28;20261;-77
2022/07/26 03:15:37;;;;;;;6.90;2.27;;;18.40;99.90;;;;;;5030474;28;20194;-76
2022/07/26 03:18:02;;;;;;;12.07;2.60;;;18.40;99.90;;;;;;5030614;28;20181;-77
2022/07/26 03:20:28;;;;;;;8.73;2.73;;;18.30;99.90;;;;;;5033416;28;20178;-78
2022/07/26 03:22:54;;;;;;;7.17;2.30;;;18.30;99.90;;;;;;5034368;28;20649;-78
2022/07/26 03:25:20;;;;;;;5.87;2.20;;;18.40;99.90;;;;;;5035211;28;20232;-79
2022/07/26 03:27:46;;;;;;;9.87;2.67;;;18.30;99.90;;;;;;5035145;28;20170;-79
2022/07/26 03:30:13;;;;;;;7.20;2.23;;;18.30;99.90;;;;;;5035058;28;20170;-78
2022/07/26 03:32:38;;;;;;;11.67;3.00;;;18.30;99.90;;;;;;5034225;28;20178;-77
2022/07/26 03:35:05;;;;;;;9.87;2.50;;;18.30;99.90;;;;;;5034499;28;20557;-78
2022/07/26 03:37:31;;;;;;;9.37;2.50;;;18.30;99.90;;;;;;5035147;28;20205;-78
2022/07/26 03:39:56;;;;;;;5.87;2.30;;;18.30;99.90;;;;;;5035210;28;20649;-77
2022/07/26 03:42:22;;;;;;;7.63;2.57;;;18.40;99.90;;;;;;5034240;28;20216;-78
2022/07/26 03:44:48;;;;;;;11.20;2.17;;;18.30;99.90;;;;;;5034098;28;20290;-78
2022/07/26 03:47:13;;;;;;;9.47;2.40;;;18.30;99.90;;;;;;5033951;28;20646;-79
2022/07/26 03:49:39;;;;;;;7.17;2.50;;;18.20;99.90;;;;;;5034535;28;20166;-79
2022/07/26 03:52:05;;;;;;;14.00;2.57;;;18.20;99.90;;;;;;5034188;28;20672;-78
2022/07/26 03:54:31;;;;;;;11.90;2.50;;;18.30;99.90;;;;;;5034655;28;20205;-76
2022/07/26 03:56:56;;;;;;;11.43;2.70;;;18.30;99.90;;;;;;5034608;28;20286;-78
2022/07/26 03:59:24;;;;;;;7.77;2.50;;;18.30;99.90;;;;;;5034368;28;20178;-78
2022/07/26 04:01:50;;;;;;;11.97;3.57;;;18.30;99.90;;;;;;5033645;28;20174;-78
2022/07/26 04:04:17;;;;;;;8.40;2.60;;;18.20;99.90;;;;;;5035118;28;20206;-78
2022/07/26 04:06:45;;;;;;;9.37;3.60;;;18.30;99.90;;;;;;5034756;28;20634;-77
2022/07/26 04:09:11;;;;;;;9.30;2.37;;;18.20;99.90;;;;;;5034977;28;20550;-77
2022/07/26 04:11:37;;;;;;;13.23;3.63;;;18.20;99.90;;;;;;5033644;28;20660;-78
2022/07/26 04:14:02;;;;;;;10.70;2.80;;;18.20;99.90;;;;;;5033574;28;20197;-77
2022/07/26 04:16:28;;;;;;;11.37;2.97;;;18.20;99.90;;;;;;5034027;28;20178;-77
2022/07/26 04:18:54;;;;;;;10.97;2.90;;;18.30;99.90;;;;;;5034620;28;20174;-79
2022/07/26 04:21:20;;;;;;;10.43;2.90;;;18.20;99.90;;;;;;5033669;28;20269;-78
2022/07/26 04:23:46;;;;;;;8.90;2.80;;;18.20;99.90;;;;;;5033475;28;20214;-78
2022/07/26 04:26:13;;;;;;;5.60;2.37;;;18.20;99.90;;;;;;5034061;28;20180;-78
2022/07/26 04:28:39;;;;;;;11.17;3.50;;;18.20;99.90;;;;;;5033662;28;20178;-78
2022/07/26 04:31:05;;;;;;;8.23;2.63;;;18.20;99.90;;;;;;5033190;28;20209;-77
2022/07/26 04:33:31;;;;;;;12.53;2.80;;;18.20;99.90;;;;;;5033856;28;20194;-77
2022/07/26 04:35:58;;;;;;;9.13;2.67;;;18.30;99.90;;;;;;5033841;28;20173;-77
2022/07/26 04:38:23;;;;;;;9.47;3.03;;;18.20;99.90;;;;;;5033518;28;20178;-78
2022/07/26 04:40:50;;;;;;;8.03;2.93;;;18.30;99.90;;;;;;5033801;28;20174;-78
2022/07/26 04:43:16;;;;;;;9.50;2.97;;;18.20;99.90;;;;;;5034091;28;20202;-78
2022/07/26 04:45:46;;;;;;;13.10;3.30;;;18.30;99.90;;;;;;5033277;28;20190;-78
2022/07/26 04:48:12;;;;;;;8.07;2.87;;;18.20;99.90;;;;;;5033339;28;20511;-77
2022/07/26 04:50:38;;;;;;;10.27;3.13;;;18.10;99.90;;;;;;5032421;28;20178;-78
2022/07/26 04:53:03;;;;;;;12.97;3.17;;;18.20;99.90;;;;;;5031973;28;20668;-78
2022/07/26 04:55:29;;;;;;;9.77;3.10;;;18.30;99.90;;;;;;5034208;28;20205;-76
2022/07/26 04:57:55;;;;;;;12.63;3.30;;;18.10;99.90;;;;;;5033813;28;20174;-78
2022/07/26 05:00:25;;;;;;;10.03;3.13;;;18.10;99.90;;;;;;5034090;28;20553;-78
2022/07/26 05:02:53;;;;;;;8.33;3.27;;;18.20;99.90;;;;;;5032729;28;20554;-79
2022/07/26 05:05:19;;;;;;;7.00;2.67;;;18.50;99.90;;;;;;5033748;28;20212;-78
2022/07/26 05:07:48;;;;;;;9.77;2.90;;;18.90;99.90;;;;;;5033354;28;20189;-78
2022/07/26 05:10:15;;;;;;;12.13;3.20;;;18.70;99.90;;;;;;5033525;28;20189;-77
2022/07/26 05:12:40;;;;;;;12.90;3.47;;;18.70;99.90;;;;;;5034167;28;20204;-78
2022/07/26 05:15:07;;;;;;;11.63;3.10;;;18.70;99.90;;;;;;5034533;28;20225;-78
2022/07/26 05:17:33;;;;;;;10.57;2.80;;;18.90;99.90;;;;;;5032911;28;20592;-78
2022/07/26 05:19:58;;;;;;;7.73;3.10;;;19.00;99.90;;;;;;5033962;28;20265;-77
2022/07/26 05:22:24;;;;;;;9.37;3.00;;;18.90;99.90;;;;;;5033338;28;20170;-78
2022/07/26 05:24:50;;;;;;;8.33;2.73;;;19.00;99.90;;;;;;5032968;28;20206;-79
2022/07/26 05:27:15;;;;;;;11.17;2.80;;;19.20;99.90;;;;;;5033974;28;20650;-78
2022/07/26 05:29:41;;;;;;;11.23;3.13;;;19.30;99.90;;;;;;5033648;28;20178;-78
2022/07/26 05:32:06;;;;;;;10.87;2.80;;;19.40;99.90;;;;;;5033276;28;20174;-78
2022/07/26 05:34:32;;;;;;;17.90;3.73;;;19.50;99.90;;;;;;5033992;28;20221;-78
2022/07/26 05:36:58;;;;;;;9.97;3.17;;;19.70;99.90;;;;;;5033863;28;20186;-78
2022/07/26 05:39:23;;;;;;;8.23;2.60;;;19.80;99.90;;;;;;5033479;28;20182;-77
2022/07/26 05:41:49;;;;;;;12.68;3.20;;;19.80;99.90;;;;;;5033271;28;20182;-78
2022/07/26 05:44:14;;;;;;;12.25;3.15;;;19.80;99.90;;;;;;5033537;28;20253;-78
2022/07/26 05:46:40;;;;;;;11.40;3.22;;;19.90;99.90;;;;;;5033848;28;20265;-78
2022/07/26 05:49:06;;;;;;;11.13;2.65;;;20.30;99.90;;;;;;5033586;28;20201;-78
2022/07/26 05:51:32;;;;;;;13.30;2.72;;;20.30;99.90;;;;;;5033397;28;20216;-77
2022/07/26 05:53:58;;;;;;;10.48;3.05;;;20.50;99.90;;;;;;5033590;28;20193;-77
2022/07/26 05:56:24;;;;;;;12.27;2.85;;;20.50;99.90;;;;;;5033525;28;20200;-77
2022/07/26 05:58:50;;;;;;;12.57;3.22;;;20.50;99.90;;;;;;5033964;28;20281;-78
2022/07/26 06:01:16;;;;;;;8.75;3.45;;;20.50;99.90;;;;;;5033137;28;20181;-78
2022/07/26 06:03:41;;;;;;;12.63;3.20;;;20.50;99.90;;;;;;5032797;28;20201;-78
2022/07/26 06:06:08;;;;;;;8.40;2.95;;;20.30;99.90;;;;;;5033315;28;20181;-78
2022/07/26 06:08:33;;;;;;;11.32;2.83;;;20.30;99.90;;;;;;5033509;28;20197;-78
2022/07/26 06:10:59;;;;;;;10.43;2.70;;;20.10;99.90;;;;;;5033774;28;20225;-79
2022/07/26 06:13:24;;;;;;;8.73;2.83;;;19.90;99.90;;;;;;5033343;28;20173;-78
2022/07/26 06:15:51;;;;;;;17.10;3.20;;;20.00;99.90;;;;;;5033711;28;20273;-78
2022/07/26 06:18:16;;;;;;;13.95;3.20;;;20.00;99.90;;;;;;5033010;28;20185;-79
2022/07/26 06:20:44;;;;;;;11.13;3.58;;;20.10;99.90;;;;;;5032559;28;20170;-77
2022/07/26 06:23:10;;;;;;;7.40;3.05;;;20.00;99.90;;;;;;5033644;28;20572;-79
2022/07/26 06:25:36;;;;;;;11.85;3.20;;;19.90;99.90;;;;;;5032339;28;20190;-77
2022/07/26 06:28:04;;;;;;;5.05;2.90;;;20.10;99.90;;;;;;5032228;28;20177;-76
2022/07/26 06:30:29;;;;;;;12.68;2.72;;;20.00;99.90;;;;;;5031946;28;20166;-76
2022/07/26 06:32:55;;;;;;;10.68;3.30;;;20.10;99.90;;;;;;5032044;28;20643;-79
2022/07/26 06:35:22;;;;;;;8.82;3.13;;;20.20;99.90;;;;;;5031559;28;20202;-78
2022/07/26 06:37:49;;;;;;;12.45;2.90;;;20.30;99.90;;;;;;5031826;28;20181;-76
2022/07/26 06:40:14;;;;;;;7.93;3.00;;;20.50;99.90;;;;;;5031564;28;20634;-78
2022/07/26 06:42:40;;;;;;;6.28;3.08;;;20.30;99.90;;;;;;5031808;28;20208;-77
2022/07/26 06:45:07;;;;;;;7.13;2.97;;;20.40;99.90;;;;;;5032432;28;20285;-78
2022/07/26 06:47:34;;;;;;;8.15;3.38;;;20.80;99.90;;;;;;5030973;28;20181;-78
2022/07/26 06:50:00;;;;;;;8.90;2.75;;;21.60;99.90;;;;;;5031196;28;20635;-77
2022/07/26 06:52:26;;;;;;;10.13;3.22;;;21.80;99.90;;;;;;5030968;28;20571;-78
2022/07/26 06:54:52;;;;;;;8.35;2.85;;;22.00;99.90;;;;;;5033625;28;20208;-77
2022/07/26 06:57:17;;;;;;;12.23;2.60;;;21.40;99.90;;;;;;5035174;28;20240;-77
2022/07/26 06:59:43;;;;;;;8.50;2.95;;;21.50;99.90;;;;;;5035194;28;20264;-78
2022/07/26 07:02:08;;;;;;;11.00;3.10;;;22.00;99.90;;;;;;5034283;28;20613;-77
2022/07/26 07:04:34;;;;;;;7.53;2.70;;;21.70;99.90;;;;;;5035321;28;21009;-79
2022/07/26 07:07:01;;;;;;;10.40;3.00;;;21.60;99.90;;;;;;5036351;28;20174;-78
2022/07/26 07:09:28;;;;;;;7.68;2.83;;;22.00;99.90;;;;;;5035990;28;20174;-78
2022/07/26 07:11:54;;;;;;;8.88;2.95;;;22.10;99.90;;;;;;5036679;28;20177;-78
2022/07/26 07:14:19;;;;;;;6.20;2.85;;;22.10;99.90;;;;;;5035182;28;20307;-77
2022/07/26 07:16:45;;;;;;;10.90;2.70;;;22.40;99.90;;;;;;5035474;28;20210;-78
2022/07/26 07:19:11;;;;;;;10.27;2.28;;;22.70;99.90;;;;;;5035205;28;20277;-80
2022/07/26 07:21:38;;;;;;;8.43;2.72;;;23.00;99.90;;;;;;5034745;28;20170;-76
2022/07/26 07:24:04;;;;;;;8.65;2.70;;;22.90;99.90;;;;;;5034641;28;20729;-79
2022/07/26 07:26:30;;;;;;;6.78;2.28;;;23.10;99.90;;;;;;5035759;28;20177;-80
2022/07/26 07:28:56;;;;;;;3.80;1.90;;;23.70;99.90;;;;;;5036362;28;20173;-78
2022/07/26 07:31:22;;;;;;;10.15;2.35;;;23.40;99.90;;;;;;5035825;28;20173;-78
2022/07/26 07:33:47;;;;;;;4.90;2.45;;;23.70;99.90;;;;;;5034828;28;20229;-77
2022/07/26 07:36:13;;;;;;;9.45;2.72;;;23.30;99.90;;;;;;5035840;28;20174;-77
2022/07/26 07:38:38;;;;;;;5.38;2.83;;;23.30;99.90;;;;;;5049334;22;20217;-77
2022/07/26 07:41:04;;;;;;;8.02;2.38;;;23.80;99.90;;;;;;5033301;28;20178;-78
2022/07/26 07:43:30;;;;;;;6.93;2.63;;;24.40;99.90;;;;;;5033397;28;20201;-79
2022/07/26 07:45:55;;;;;;;9.80;2.72;;;24.40;99.90;;;;;;5033466;28;20176;-79
2022/07/26 07:48:21;;;;;;;6.00;2.50;;;24.70;99.90;;;;;;5033452;28;20170;-79
2022/07/26 07:50:47;;;;;;;11.77;2.47;;;24.50;99.90;;;;;;5033390;28;20235;-78
2022/07/26 07:53:13;;;;;;;6.53;2.60;;;24.20;99.90;;;;;;5033186;28;20178;-77
2022/07/26 07:55:39;;;;;;;6.88;2.42;;;23.90;99.90;;;;;;5033295;28;20196;-77
2022/07/26 07:58:04;;;;;;;5.97;2.30;;;24.00;99.90;;;;;;5033362;28;20626;-77
2022/07/26 08:00:30;;;;;;;5.30;2.20;;;23.60;99.90;;;;;;5033371;28;20178;-78
2022/07/26 08:02:56;;;;;;;6.43;2.33;;;24.30;99.90;;;;;;5034354;28;20205;-78
2022/07/26 08:05:21;;;;;;;11.48;2.55;;;24.20;99.90;;;;;;5032218;28;20194;-77
2022/07/26 08:07:47;;;;;;;6.43;2.35;;;24.20;99.90;;;;;;5032962;28;20170;-77
2022/07/26 08:10:13;;;;;;;5.68;2.47;;;23.70;99.90;;;;;;5033017;28;20181;-77
2022/07/26 08:12:38;;;;;;;3.90;2.50;;;23.30;99.90;;;;;;5032731;28;20166;-77
2022/07/26 08:15:05;;;;;;;12.15;2.70;;;23.70;99.90;;;;;;5032818;28;20193;-79
2022/07/26 08:17:30;;;;;;;6.97;2.30;;;23.50;99.90;;;;;;5032788;28;20216;-77
2022/07/26 08:19:56;;;;;;;3.60;2.10;;;23.60;99.90;;;;;;5033917;28;20170;-77
2022/07/26 08:22:22;;;;;;;6.80;2.45;;;23.20;99.90;;;;;;5032780;28;20849;-76
2022/07/26 08:24:47;;;;;;;6.28;2.22;;;22.60;99.90;;;;;;5032596;28;20209;-77
2022/07/26 08:27:13;;;;;;;6.18;1.80;;;22.50;99.90;;;;;;5034463;28;20687;-78
2022/07/26 08:29:39;;;;;;;16.98;2.53;;;21.60;99.90;;;;;;5032812;28;20738;-79
2022/07/26 08:32:05;;;;;;;2.83;1.90;;;21.00;99.90;;;;;;5032946;28;20200;-79
2022/07/26 08:34:31;;;;;;;7.68;2.60;;;20.10;99.90;;;;;;5032689;28;20194;-78
2022/07/26 08:36:57;;;;;;;11.48;2.35;;;19.90;99.90;;;;;;5033825;28;20189;-79
2022/07/26 08:39:22;;;;;;;5.97;2.15;;;20.00;99.90;;;;;;5033504;28;20190;-78
2022/07/26 08:41:48;;;;;;;5.00;2.45;;;20.10;99.90;;;;;;5034475;28;20630;-78
2022/07/26 08:44:14;;;;;;;7.70;2.83;;;19.90;99.90;;;;;;5033241;28;20210;-78
2022/07/26 08:46:41;;;;;;;8.23;3.03;;;19.70;99.90;;;;;;5032699;28;20269;-79
2022/07/26 08:49:09;;;;;;;7.53;2.70;;;19.80;99.90;;;;;;5032679;28;20173;-79
2022/07/26 08:51:41;;;;;;;7.68;2.38;;;19.90;99.90;;;;;;5032124;28;20606;-78
2022/07/26 08:54:08;;;;;;;5.35;2.47;;;19.80;99.90;;;;;;5032271;28;20233;-78
2022/07/26 08:56:35;;;;;;;4.00;2.63;;;20.00;99.90;;;;;;5032207;28;20170;-78
2022/07/26 08:59:12;;;;;;;4.38;2.78;;;19.60;99.90;;;;;;5032145;28;20201;-77
2022/07/26 09:01:57;;;;;;;8.50;2.88;;;19.70;99.90;;;;;;5032000;28;20546;-79
2022/07/26 09:04:28;;;;;;;12.57;2.75;;;19.60;99.90;;;;;;5032165;28;20209;-77
2022/07/26 09:07:00;;;;;;;8.40;3.28;;;19.40;99.90;;;;;;5031979;28;20174;-78
2022/07/26 09:09:27;;;;;;;7.30;3.22;;;19.40;99.90;;;;;;5031909;28;20257;-78
2022/07/26 09:11:54;;;;;;;5.47;3.08;;;19.10;99.90;;;;;;5031693;28;20598;-77
2022/07/26 09:14:19;;;;;;;5.55;3.05;;;19.30;99.90;;;;;;5031566;28;20285;-77
2022/07/26 09:16:58;;;;;;;6.72;2.80;;;19.50;99.90;;;;;;5031568;28;20261;-77
2022/07/26 09:19:26;;;;;;;7.73;2.87;;;19.70;99.90;;;;;;5031786;28;20181;-78
2022/07/26 09:21:54;;;;;;;7.70;3.00;;;19.60;99.90;;;;;;5031404;28;20174;-77
2022/07/26 09:24:33;;;;;;;5.85;2.95;;;19.90;99.90;;;;;;5031666;28;20228;-77
2022/07/26 09:27:00;;;;;;;7.32;2.85;;;19.90;99.90;;;;;;5031722;28;20629;-78
2022/07/26 09:29:29;;;;;;;8.73;3.03;;;19.90;99.90;;;;;;5031627;28;20174;-77
2022/07/26 09:32:15;;;;;;;6.30;2.90;;;19.70;99.90;;;;;;5031395;28;20174;-78
2022/07/26 09:34:42;;;;;;;7.85;2.83;;;19.70;99.90;;;;;;5031530;28;20190;-77
2022/07/26 09:37:08;;;;;;;5.68;2.70;;;19.80;99.90;;;;;;5031533;28;20248;-77
2022/07/26 09:39:59;;;;;;;5.78;2.30;;;19.80;99.90;;;;;;5031296;28;20182;-77
2022/07/26 09:42:26;;;;;;;6.57;2.40;;;19.80;99.90;;;;;;5032555;28;20209;-77
2022/07/26 09:44:53;;;;;;;7.63;2.78;;;19.90;99.90;;;;;;5031126;28;20210;-77
2022/07/26 09:47:19;;;;;;;4.07;2.42;;;19.80;99.90;;;;;;5031372;28;20170;-78
2022/07/26 09:49:45;;;;;;;7.35;2.40;;;20.30;99.90;;;;;;5031226;28;20181;-78
2022/07/26 09:52:15;;;;;;;8.13;2.00;;;20.30;99.90;;;;;;5031121;28;20173;-79
2022/07/26 09:54:44;;;;;;;4.32;2.50;;;20.50;99.90;;;;;;5031103;28;20198;-79
2022/07/26 09:57:11;;;;;;;8.32;2.90;;;20.60;99.90;;;;;;5031119;28;20174;-77
2022/07/26 09:59:36;;;;;;;7.07;2.60;;;20.70;99.90;;;;;;5032308;28;20173;-77
2022/07/26 10:02:02;;;;;;;3.83;2.20;;;20.50;99.90;;;;;;5031306;28;20515;-77
2022/07/26 10:04:27;;;;;;;4.53;1.60;;;20.10;99.90;;;;;;5030920;28;20686;-78
2022/07/26 10:06:56;;;;;;;3.00;1.45;;;19.90;99.90;;;;;;5030984;28;20178;-79
2022/07/26 10:09:22;;;;;;;4.30;1.27;;;19.60;99.90;;;;;;5031010;28;20181;-78
2022/07/26 10:12:05;;;;;;;2.63;1.73;;;19.00;99.90;;;;;;5031972;28;20198;-77
2022/07/26 10:14:45;;;;;;;3.37;1.50;;;19.00;99.90;;;;;;5031412;28;20210;-77
2022/07/26 10:17:30;;;;;;;5.28;1.33;;;18.90;99.90;;;;;;5030655;28;20178;-77
2022/07/26 10:20:04;;;;;;;2.35;1.30;;;19.20;99.90;;;;;;5030638;28;20304;-78
2022/07/26 10:22:41;;;;;;;2.70;1.20;;;19.10;99.90;;;;;;5030551;28;20184;-78
2022/07/26 10:25:35;;;;;;;3.53;1.40;;;19.00;99.90;;;;;;5030835;28;20208;-77
2022/07/26 10:28:01;;;;;;;3.93;1.40;;;18.60;99.90;;;;;;5031836;28;20170;-77
2022/07/26 10:30:27;;;;;;;3.03;1.50;;;18.70;99.90;;;;;;5030308;28;20174;-77
2022/07/26 10:32:58;;;;;;;2.03;1.33;;;18.70;99.90;;;;;;5030516;28;20268;-77
2022/07/26 10:35:39;;;;;;;4.13;1.60;;;18.80;99.90;;;;;;5030723;28;20417;-77
2022/07/26 10:38:08;;;;;;;2.33;1.33;;;18.70;99.90;;;;;;5030739;28;20184;-77
2022/07/26 10:40:38;;;;;;;2.50;1.50;;;18.60;99.90;;;;;;5030522;28;20280;-77
2022/07/26 10:43:15;;;;;;;1.27;1.17;;;18.50;99.90;;;;;;5030285;28;20197;-77
2022/07/26 10:45:42;;;;;;;2.00;1.30;;;18.50;99.90;;;;;;5030612;28;20198;-77
2022/07/26 10:48:19;;;;;;;3.20;1.47;;;18.50;99.90;;;;;;5030676;28;20174;-77
2022/07/26 10:50:51;;;;;;;1.47;1.30;;;18.60;99.90;;;;;;5030615;28;20177;-78
2022/07/26 10:53:22;;;;;;;3.57;1.40;;;18.60;99.90;;;;;;5030415;28;20256;-77
2022/07/26 10:55:49;;;;;;;4.20;1.90;;;18.70;99.90;;;;;;5030433;28;20232;-77
2022/07/26 10:58:16;;;;;;;4.70;1.60;;;18.80;99.90;;;;;;5030451;28;20188;-77
2022/07/26 11:01:00;;;;;;;4.13;1.83;;;18.80;99.90;;;;;;5030428;28;20642;-78
2022/07/26 11:03:40;;;;;;;3.80;1.70;;;18.60;99.90;;;;;;5031638;28;20273;-77
2022/07/26 11:06:17;;;;;;;4.43;1.90;;;18.80;99.90;;;;;;5030314;28;20700;-77
2022/07/26 11:08:46;;;;;;;5.20;2.07;;;19.40;99.90;;;;;;5030406;28;20178;-78
2022/07/26 11:11:13;;;;;;;3.37;2.33;;;19.30;99.90;;;;;;5030144;28;20185;-77
2022/07/26 11:13:39;;;;;;;3.77;2.03;;;19.20;99.90;;;;;;5030125;28;20202;-77
2022/07/26 11:16:07;;;;;;;2.90;2.20;;;19.10;99.90;;;;;;5030628;28;20603;-77
2022/07/26 11:18:35;;;;;;;3.33;2.20;;;19.10;99.90;;;;;;5029945;28;20285;-77
2022/07/26 11:21:15;;;;;;;4.87;2.33;;;19.20;99.90;;;;;;5030030;28;20181;-77
2022/07/26 11:23:43;;;;;;;3.20;2.10;;;19.30;99.90;;;;;;5030171;28;20583;-77
2022/07/26 11:26:11;;;;;;;5.07;2.03;;;19.40;99.90;;;;;;5030322;28;20180;-78
2022/07/26 11:28:48;;;;;;;3.23;2.07;;;19.30;99.90;;;;;;5030286;28;20260;-78
2022/07/26 11:31:15;;;;;;;5.93;1.90;;;19.60;99.90;;;;;;5030166;28;20323;-77
2022/07/26 11:33:45;;;;;;;3.67;2.20;;;19.60;99.90;;;;;;5030162;28;20198;-78
2022/07/26 11:36:11;;;;;;;8.57;1.98;;;19.70;99.90;;;;;;5030266;28;20593;-77
2022/07/26 11:38:53;;;;;;;3.30;2.08;;;19.70;99.90;;;;;;5030271;28;20296;-77
2022/07/26 11:41:23;;;;;;;4.50;2.00;;;19.60;99.90;;;;;;5032558;28;20170;-77
2022/07/26 11:43:50;;;;;;;3.70;1.60;;;19.80;99.90;;;;;;5033581;28;20205;-78
2022/07/26 11:46:17;;;;;;;4.20;1.65;;;20.00;99.90;;;;;;5033668;28;20197;-78
2022/07/26 11:48:51;;;;;;;3.47;1.60;;;20.00;99.90;;;;;;5033620;28;20610;-78
2022/07/26 11:51:16;;;;;;;4.35;1.77;;;20.00;99.90;;;;;;5033321;28;20168;-78
2022/07/26 11:53:43;;;;;;;7.32;1.80;;;19.80;99.90;;;;;;5033419;28;20554;-78
2022/07/26 11:56:12;;;;;;;2.58;1.55;;;20.00;99.90;;;;;;5033369;28;20181;-78
2022/07/26 11:58:39;;;;;;;1.58;1.48;;;19.90;99.90;;;;;;5033421;28;20269;-77
2022/07/26 12:01:07;;;;;;;3.05;1.50;;;19.90;99.90;;;;;;5033228;28;20173;-77
2022/07/26 12:03:34;;;;;;;4.35;1.60;;;19.80;99.90;;;;;;5033164;28;20198;-77
2022/07/26 12:06:02;;;;;;;4.20;1.70;;;19.90;99.90;;;;;;5033274;28;20232;-78
2022/07/26 12:08:41;;;;;;;3.65;1.40;;;19.90;99.90;;;;;;5033409;28;20184;-77
2022/07/26 12:11:07;;;;;;;2.72;1.35;;;19.80;99.90;;;;;;5033016;28;20178;-78
2022/07/26 12:13:57;;;;;;;3.78;1.38;;;19.60;99.90;;;;;;5032817;28;20220;-78
2022/07/26 12:16:40;;;;;;;2.83;1.60;;;20.00;99.90;;;;;;5033397;28;20539;-78
2022/07/26 12:19:25;;;;;;;2.40;1.40;;;20.30;99.90;;;;;;5032372;28;20239;-77
2022/07/26 12:21:57;;;;;;;3.75;1.50;;;20.20;99.90;;;;;;5032916;28;20178;-77
2022/07/26 12:24:36;;;;;;;2.15;1.40;;;20.10;99.90;;;;;;5032984;28;20573;-77
2022/07/26 12:27:09;;;;;;;5.03;1.48;;;19.90;99.90;;;;;;5033120;28;20174;-78
2022/07/26 12:29:36;;;;;;;2.67;1.80;;;19.80;99.90;;;;;;5032817;28;20182;-77
2022/07/26 12:32:07;;;;;;;5.07;1.83;;;19.50;99.90;;;;;;5033259;28;20215;-78
2022/07/26 12:34:34;;;;;;;3.33;1.70;;;19.30;99.90;;;;;;5033010;28;20284;-77
2022/07/26 12:37:10;;;;;;;6.43;1.70;;;19.40;99.90;;;;;;5032852;28;20257;-77
2022/07/26 12:39:36;;;;;;;2.13;1.52;;;19.30;99.90;;;;;;5032437;28;20217;-79
2022/07/26 12:42:22;;;;;;;5.53;1.67;;;19.40;99.90;;;;;;5032416;28;20266;-78
2022/07/26 12:44:48;;;;;;;3.85;1.92;;;19.30;99.90;;;;;;5032377;28;20217;-78
2022/07/26 12:47:14;;;;;;;3.53;1.67;;;19.10;99.90;;;;;;5032443;28;20170;-78
2022/07/26 12:49:39;;;;;;;6.65;1.60;;;19.10;99.90;;;;;;5032335;28;20309;-77